Time;durP1;ratioP1;P1;durP2;ratioP2;P2;SDS_P1;SDS_P2;PMS_P1;PMS_P2;Temp;Humidity;BMP_temperature;BMP_pressure;BME280_temperature;BME280_humidity;BME280_pressure;Samples;Min_cycle;Max_cycle;Signal;HPM_P1;HPM_P2
2023/07/03 08:57:24;;;;;;;18.58;5.00;;;;;;;16.88;69.96;100894.09;5050127;28;20407;-70
2023/07/03 08:59:49;;;;;;;16.67;5.10;;;;;;;16.86;69.59;100897.06;5048928;28;20037;-69
2023/07/03 09:02:26;;;;;;;15.68;5.03;;;;;;;16.87;70.35;100889.72;5047412;28;20029;-68
2023/07/03 09:05:29;;;;;;;19.33;4.75;;;;;;;16.93;71.97;100885.94;5050107;28;20025;-67
2023/07/03 09:08:01;;;;;;;21.00;5.38;;;;;;;16.96;66.45;100893.59;5039994;28;20144;-69
2023/07/03 09:10:29;;;;;;;;;;;;;;;17.04;71.51;100893.06;5036027;28;20190;-71
2023/07/03 09:13:18;;;;;;;21.02;5.03;;;;;;;17.07;68.83;100892.53;5042926;28;19921;-68
2023/07/03 09:15:55;;;;;;;15.60;4.63;;;;;;;17.12;68.13;100898.03;5043218;28;20025;-71
2023/07/03 09:18:27;;;;;;;18.17;5.53;;;;;;;17.26;67.35;100892.88;5048257;28;20116;-69
2023/07/03 09:20:55;;;;;;;15.95;4.60;;;;;;;17.38;68.28;100884.44;5046342;28;20082;-70
2023/07/03 09:23:26;;;;;;;15.45;4.53;;;;;;;17.48;65.75;100880.91;5048019;28;20033;-70
2023/07/03 09:25:57;;;;;;;17.23;5.05;;;;;;;17.50;65.41;100879.53;5043316;28;20465;-70
2023/07/03 09:28:23;;;;;;;15.60;5.05;;;;;;;17.50;65.04;100884.19;5047130;28;20045;-70
2023/07/03 09:30:51;;;;;;;18.75;5.30;;;;;;;17.46;67.53;100888.56;5047350;28;20116;-69
2023/07/03 09:33:20;;;;;;;17.52;5.35;;;;;;;17.45;66.83;100893.22;5045535;28;20438;-74
2023/07/03 09:35:47;;;;;;;16.25;5.13;;;;;;;17.45;64.89;100887.75;5046302;28;20082;-68
2023/07/03 09:38:21;;;;;;;19.15;5.93;;;;;;;17.54;66.40;100896.22;5045852;28;20055;-69
2023/07/03 09:40:52;;;;;;;17.05;5.18;;;;;;;17.72;64.35;100889.41;5045608;28;20025;-69
2023/07/03 09:43:24;;;;;;;13.40;4.43;;;;;;;17.70;61.74;100894.34;5048725;28;20481;-69
2023/07/03 09:46:01;;;;;;;14.95;4.90;;;;;;;17.83;64.21;100893.81;5044714;28;20586;-70
2023/07/03 09:48:30;;;;;;;14.95;5.10;;;;;;;17.88;63.66;100902.03;5048443;28;20037;-69
2023/07/03 09:50:56;;;;;;;17.38;5.10;;;;;;;18.02;62.17;100896.84;5049284;28;20029;-69
2023/07/03 09:53:26;;;;;;;13.98;5.18;;;;;;;18.27;59.20;100886.16;5040353;28;20378;-69
2023/07/03 09:55:57;;;;;;;14.20;4.75;;;;;;;18.20;55.66;100879.03;5045426;28;20107;-69
2023/07/03 09:58:27;;;;;;;13.97;5.20;;;;;;;18.23;57.84;100897.66;5042695;28;20113;-69
2023/07/03 10:00:58;;;;;;;15.25;5.03;;;;;;;18.21;56.09;100888.91;5035760;28;20021;-68
2023/07/03 10:03:31;;;;;;;17.08;5.43;;;;;;;18.37;58.72;100891.63;5058121;28;20399;-69
2023/07/03 10:06:12;;;;;;;21.10;5.22;;;;;;;18.32;55.87;100888.91;5042143;28;20037;-70
2023/07/03 10:08:44;;;;;;;17.58;4.78;;;;;;;18.36;55.14;100887.25;5029736;28;20076;-70
2023/07/03 10:11:11;;;;;;;14.57;5.07;;;;;;;18.51;55.41;100897.34;5033466;28;20091;-67
2023/07/03 10:13:44;;;;;;;18.00;4.90;;;;;;;18.58;54.37;100893.25;5034399;28;20035;-68
2023/07/03 10:16:13;;;;;;;14.32;4.82;;;;;;;18.83;55.11;100899.75;5035133;28;20029;-71
2023/07/03 10:18:42;;;;;;;13.95;4.50;;;;;;;18.94;55.07;100901.38;5033264;28;20091;-70
2023/07/03 10:21:12;;;;;;;13.60;4.40;;;;;;;19.00;53.23;100898.63;5033493;28;20056;-69
2023/07/03 10:23:41;;;;;;;20.02;5.13;;;;;;;18.98;51.75;100912.63;5034951;28;20431;-69
2023/07/03 10:26:16;;;;;;;16.27;4.82;;;;;;;18.88;52.27;100916.19;5033382;28;20029;-68
2023/07/03 10:28:48;;;;;;;13.60;4.50;;;;;;;18.70;51.35;100912.09;5032883;28;20036;-70
2023/07/03 10:31:21;;;;;;;;;;;;;;;18.77;53.45;100917.31;5035339;28;20036;-70
2023/07/03 10:33:48;;;;;;;16.17;4.40;;;;;;;18.58;51.17;100926.13;5032013;28;19943;-69
2023/07/03 10:36:24;;;;;;;14.70;4.70;;;;;;;18.60;51.82;100917.63;5033717;28;20465;-70
2023/07/03 10:38:55;;;;;;;12.02;4.03;;;;;;;18.60;51.23;100918.44;5029956;28;20029;-71
2023/07/03 10:41:37;;;;;;;15.70;4.93;;;;;;;18.64;52.07;100917.88;5034627;28;20026;-71
2023/07/03 10:44:10;;;;;;;16.25;4.10;;;;;;;18.56;52.78;100917.34;5034381;28;20021;-68
2023/07/03 10:47:01;;;;;;;14.23;4.30;;;;;;;18.53;52.27;100925.31;5033234;28;20033;-71
2023/07/03 10:49:31;;;;;;;16.08;3.92;;;;;;;18.51;51.34;100922.00;5038384;28;20037;-70
2023/07/03 10:52:00;;;;;;;13.07;3.85;;;;;;;18.49;50.78;100927.75;5034678;28;20031;-69
2023/07/03 10:54:58;;;;;;;11.25;3.55;;;;;;;18.54;52.83;100924.19;5030772;28;20124;-69
2023/07/03 10:57:33;;;;;;;12.40;3.47;;;;;;;18.67;49.49;100923.63;5030655;28;20061;-71
2023/07/03 11:00:06;;;;;;;9.65;3.10;;;;;;;18.65;48.66;100920.34;5016917;28;20042;-69
2023/07/03 11:02:44;;;;;;;11.52;3.40;;;;;;;18.88;50.33;100918.13;5024303;28;20045;-69
2023/07/03 11:05:28;;;;;;;17.45;3.80;;;;;;;18.99;48.93;100924.38;5032075;28;20037;-69
2023/07/03 11:08:04;;;;;;;9.98;3.25;;;;;;;19.05;47.70;100909.56;5033962;28;20033;-71
2023/07/03 11:10:43;;;;;;;10.52;3.33;;;;;;;19.10;47.23;100906.81;5015113;28;20060;-72
2023/07/03 11:13:14;;;;;;;13.88;3.40;;;;;;;19.43;48.16;100912.66;5021493;28;20041;-68
2023/07/03 11:16:05;;;;;;;14.07;3.40;;;;;;;19.60;48.56;100907.63;5026492;28;20030;-70
2023/07/03 11:18:40;;;;;;;10.80;3.15;;;;;;;19.48;46.10;100915.38;5018849;28;20128;-71
2023/07/03 11:21:19;;;;;;;10.55;3.38;;;;;;;19.29;46.23;100920.69;5019717;28;20026;-71
2023/07/03 11:24:13;;;;;;;10.20;3.40;;;;;;;19.24;46.99;100916.06;5022371;28;20025;-69
2023/07/03 11:26:52;;;;;;;9.55;2.97;;;;;;;19.09;46.39;100916.94;5018946;28;20022;-69
2023/07/03 11:29:19;;;;;;;9.60;3.10;;;;;;;18.98;46.63;100914.50;5018736;28;20030;-68
2023/07/03 11:31:46;;;;;;;11.80;3.17;;;;;;;18.90;46.36;100921.41;5022156;28;20120;-69
2023/07/03 11:34:15;;;;;;;9.93;2.95;;;;;;;18.90;46.73;100919.50;5023702;28;20468;-68
2023/07/03 11:36:45;;;;;;;12.25;3.70;;;;;;;18.86;46.78;100918.41;5023779;28;20130;-72
2023/07/03 11:39:24;;;;;;;11.00;3.25;;;;;;;18.97;48.28;100918.38;5020656;28;21956;-67
2023/07/03 11:42:10;;;;;;;15.80;3.58;;;;;;;19.13;47.47;100914.47;5023381;28;20612;-72
2023/07/03 11:44:47;;;;;;;13.20;3.58;;;;;;;19.32;47.33;100909.16;5021486;28;20385;-70
2023/07/03 11:47:16;;;;;;;10.18;3.03;;;;;;;19.30;45.40;100911.38;5023069;28;20033;-69
2023/07/03 11:49:51;;;;;;;12.07;3.25;;;;;;;19.43;46.17;100904.44;5033181;28;20033;-70
2023/07/03 11:52:29;;;;;;;8.52;2.92;;;;;;;19.42;46.41;100909.09;5033323;28;20160;-69
2023/07/03 11:55:16;;;;;;;12.50;3.05;;;;;;;19.52;46.23;100905.50;5028710;28;20030;-75
2023/07/03 11:57:45;;;;;;;12.88;3.00;;;;;;;19.75;46.35;100911.38;5032725;28;20084;-71
2023/07/03 12:00:16;;;;;;;10.50;3.00;;;;;;;19.89;45.19;100906.91;5032843;28;20034;-72
2023/07/03 12:02:49;;;;;;;11.52;3.10;;;;;;;19.90;45.47;100916.78;5024794;28;20624;-69
2023/07/03 12:05:44;;;;;;;9.75;2.60;;;;;;;20.08;46.08;100914.44;5032756;28;20036;-73
2023/07/03 12:08:18;;;;;;;15.63;3.47;;;;;;;20.18;46.13;100919.84;5032115;28;20037;-71
2023/07/03 12:10:57;;;;;;;11.90;2.95;;;;;;;20.53;46.91;100917.88;5032092;28;20487;-72
2023/07/03 12:13:34;;;;;;;15.57;3.15;;;;;;;20.21;44.84;100922.03;5032677;28;20025;-70
2023/07/03 12:16:02;;;;;;;17.15;3.67;;;;;;;19.93;45.12;100929.94;5029268;28;20033;-70
2023/07/03 12:18:28;;;;;;;8.75;2.42;;;;;;;19.72;46.20;100920.19;5028936;28;20108;-71
2023/07/03 12:20:59;;;;;;;12.32;3.20;;;;;;;19.58;47.05;100919.97;5025188;28;20033;-71
2023/07/03 12:23:38;;;;;;;7.63;2.78;;;;;;;19.55;47.26;100932.38;5030638;28;20033;-71
2023/07/03 12:26:10;;;;;;;17.73;3.83;;;;;;;19.41;48.15;100928.59;5030103;28;20112;-76
2023/07/03 12:28:37;;;;;;;10.70;3.40;;;;;;;19.36;46.48;100928.63;5031555;28;20031;-75
2023/07/03 12:31:15;;;;;;;17.33;3.45;;;;;;;19.29;46.08;100928.94;5030083;28;20021;-74
2023/07/03 12:33:58;;;;;;;12.27;3.00;;;;;;;19.28;46.31;100928.13;5031892;28;20080;-70
2023/07/03 12:36:30;;;;;;;9.65;2.90;;;;;;;19.21;46.17;100930.34;5031454;28;20416;-73
2023/07/03 12:38:57;;;;;;;12.60;3.08;;;;;;;19.27;46.17;100931.94;5032502;28;20029;-69
2023/07/03 12:41:29;;;;;;;14.48;3.13;;;;;;;19.29;46.23;100934.41;5028516;28;20574;-70
2023/07/03 12:43:55;;;;;;;13.00;3.63;;;;;;;19.16;46.37;100932.28;5030823;28;20112;-69
2023/07/03 12:46:38;;;;;;;9.95;2.97;;;;;;;19.20;46.69;100923.19;5032596;28;20116;-70
2023/07/03 12:49:07;;;;;;;16.83;3.05;;;;;;;19.17;46.62;100937.47;5032247;28;20445;-70
2023/07/03 12:51:48;;;;;;;8.32;2.65;;;;;;;19.29;47.42;100939.91;5032502;28;20032;-69
2023/07/03 12:54:13;;;;;;;13.60;3.23;;;;;;;19.34;46.28;100942.63;5032658;28;20112;-73
2023/07/03 12:56:40;;;;;;;10.98;3.15;;;;;;;19.32;46.18;100933.03;5015129;28;20385;-70
2023/07/03 12:59:08;;;;;;;11.35;3.50;;;;;;;19.26;46.50;100930.34;5012781;28;20026;-69
2023/07/03 13:01:35;;;;;;;14.13;3.28;;;;;;;19.20;47.62;100941.59;5020653;28;20059;-70
2023/07/03 13:04:02;;;;;;;14.60;3.60;;;;;;;19.13;48.06;100939.16;5031124;28;20033;-71
2023/07/03 13:06:29;;;;;;;11.88;3.30;;;;;;;19.02;48.59;100934.81;5031777;28;20053;-71
2023/07/03 13:08:56;;;;;;;13.23;3.70;;;;;;;19.00;49.03;100943.31;5032181;28;20512;-71
2023/07/03 13:11:38;;;;;;;10.45;3.33;;;;;;;19.22;48.87;100934.72;5020876;28;20033;-70
2023/07/03 13:14:30;;;;;;;10.82;3.22;;;;;;;19.59;48.26;100927.94;5029765;28;20038;-70
2023/07/03 13:16:58;;;;;;;18.40;4.28;;;;;;;19.54;48.04;100930.72;5026928;28;20049;-70
2023/07/03 13:19:27;;;;;;;10.23;2.90;;;;;;;19.48;48.77;100920.88;5029792;28;20033;-71
2023/07/03 13:21:54;;;;;;;11.75;3.40;;;;;;;19.41;48.43;100914.88;5025040;28;20084;-69
2023/07/03 13:24:20;;;;;;;13.57;3.70;;;;;;;19.30;49.31;100923.16;5030385;28;20040;-69
2023/07/03 13:26:51;;;;;;;13.50;3.38;;;;;;;19.17;49.31;100925.69;5028058;28;20061;-70
2023/07/03 13:29:25;;;;;;;12.13;3.50;;;;;;;19.13;49.72;100925.44;5012398;28;20373;-70
2023/07/03 13:31:51;;;;;;;14.30;3.60;;;;;;;19.22;49.84;100923.75;5020281;28;20033;-71
2023/07/03 13:34:22;;;;;;;11.45;3.40;;;;;;;19.50;50.66;100912.38;5025954;28;20109;-70
2023/07/03 13:36:49;;;;;;;;;;;;;;;19.60;49.82;100913.13;5032195;28;20029;-70
2023/07/03 13:39:18;;;;;;;14.07;3.28;;;;;;;19.50;49.79;100913.19;5030992;28;19916;-71
2023/07/03 13:41:44;;;;;;;13.82;3.97;;;;;;;19.41;49.18;100914.88;5028737;28;20079;-74
2023/07/03 13:44:13;;;;;;;12.77;3.03;;;;;;;19.22;48.88;100918.28;5034493;28;20029;-69
2023/07/03 13:46:40;;;;;;;11.55;3.38;;;;;;;19.15;49.26;100915.00;5035591;28;20061;-70
2023/07/03 13:49:06;;;;;;;11.25;3.22;;;;;;;19.07;49.60;100908.19;5035464;28;20467;-70
2023/07/03 13:51:33;;;;;;;14.05;3.50;;;;;;;19.02;49.87;100921.09;5035499;28;20056;-74
2023/07/03 13:53:58;;;;;;;12.95;3.22;;;;;;;18.99;49.74;100916.16;5032271;28;20551;-72
2023/07/03 13:56:26;;;;;;;14.52;3.78;;;;;;;19.01;49.93;100919.44;5035513;28;20145;-69
2023/07/03 13:58:52;;;;;;;13.48;3.58;;;;;;;19.13;49.60;100914.47;5034985;28;20396;-73
2023/07/03 14:01:19;;;;;;;12.85;3.10;;;;;;;19.31;49.28;100910.28;5033269;28;20084;-72
2023/07/03 14:03:45;;;;;;;10.85;3.05;;;;;;;19.39;49.00;100908.88;5032310;28;20033;-72
2023/07/03 14:06:10;;;;;;;14.88;3.58;;;;;;;19.43;49.34;100915.41;5032845;28;20042;-73
2023/07/03 14:08:36;;;;;;;12.30;3.10;;;;;;;19.45;48.86;100921.44;5031845;28;20373;-70
2023/07/03 14:11:02;;;;;;;13.25;3.00;;;;;;;19.58;48.59;100917.25;5029862;28;20121;-71
2023/07/03 14:13:27;;;;;;;14.57;3.15;;;;;;;19.64;47.99;100908.72;5035378;28;20495;-70
2023/07/03 14:15:53;;;;;;;13.90;3.40;;;;;;;19.57;48.44;100902.72;5034721;28;20032;-73
2023/07/03 14:18:18;;;;;;;16.52;2.92;;;;;;;19.45;48.49;100894.81;5035250;28;20026;-70
2023/07/03 14:20:46;;;;;;;15.55;3.35;;;;;;;19.37;48.46;100897.31;5035259;28;20037;-72
2023/07/03 14:23:11;;;;;;;12.73;3.25;;;;;;;19.30;49.34;100892.97;5035190;28;20138;-70
2023/07/03 14:25:37;;;;;;;9.75;3.25;;;;;;;19.27;49.06;100888.06;5032631;28;20029;-71
2023/07/03 14:28:03;;;;;;;12.68;3.38;;;;;;;19.28;49.02;100892.44;5032642;28;20513;-72
2023/07/03 14:30:28;;;;;;;17.42;3.05;;;;;;;19.24;49.10;100887.81;5034761;28;20457;-72
2023/07/03 14:32:54;;;;;;;13.18;3.22;;;;;;;19.21;49.51;100894.69;5034638;28;20031;-70
2023/07/03 14:35:19;;;;;;;14.77;3.33;;;;;;;19.15;49.17;100884.03;5034846;28;20036;-70
2023/07/03 14:37:44;;;;;;;11.40;3.10;;;;;;;19.14;49.18;100883.19;5034123;28;20037;-73
2023/07/03 14:40:11;;;;;;;10.93;3.35;;;;;;;19.06;50.20;100881.84;5033515;28;20079;-72
2023/07/03 14:42:36;;;;;;;17.60;3.70;;;;;;;19.08;49.98;100890.63;5033508;28;20465;-72
2023/07/03 14:45:01;;;;;;;11.38;3.25;;;;;;;19.07;50.01;100888.19;5029143;28;20036;-70
2023/07/03 14:47:27;;;;;;;13.23;3.65;;;;;;;19.11;50.05;100886.50;5019224;28;20029;-72
2023/07/03 14:49:52;;;;;;;17.02;3.40;;;;;;;19.20;50.06;100881.25;5023296;28;20044;-70
2023/07/03 14:52:19;;;;;;;13.23;3.17;;;;;;;19.24;49.54;100877.66;5025632;28;20026;-73
2023/07/03 14:54:45;;;;;;;11.65;3.40;;;;;;;19.27;49.68;100879.81;5033541;28;20108;-71
2023/07/03 14:57:10;;;;;;;10.23;3.15;;;;;;;19.29;50.06;100876.78;5034457;28;20433;-70
2023/07/03 14:59:36;;;;;;;13.65;3.35;;;;;;;19.28;49.96;100873.25;5034512;28;20025;-72
2023/07/03 15:02:01;;;;;;;13.00;3.20;;;;;;;19.24;49.84;100877.66;5045433;28;20396;-72
2023/07/03 15:04:26;;;;;;;14.75;3.53;;;;;;;19.22;50.36;100873.53;5050781;28;20025;-69
2023/07/03 15:06:52;;;;;;;12.13;3.45;;;;;;;19.22;50.92;100881.78;5031137;28;20034;-69
2023/07/03 15:09:17;;;;;;;12.55;3.33;;;;;;;19.23;49.53;100878.75;5031421;28;20060;-70
2023/07/03 15:11:43;;;;;;;10.05;3.10;;;;;;;19.25;49.49;100871.06;5031732;28;20043;-72
2023/07/03 15:14:09;;;;;;;13.95;2.97;;;;;;;19.26;49.28;100867.22;5032064;28;20113;-75
2023/07/03 15:16:35;;;;;;;12.60;2.97;;;;;;;19.24;49.49;100865.88;5032189;28;20083;-71
2023/07/03 15:19:02;;;;;;;10.00;3.40;;;;;;;19.25;49.32;100859.28;5031316;28;20455;-70
2023/07/03 15:21:28;;;;;;;14.30;3.25;;;;;;;19.18;49.10;100862.31;5033859;28;20034;-70
2023/07/03 15:23:54;;;;;;;11.20;3.22;;;;;;;19.20;49.41;100864.78;5032638;28;20029;-72
2023/07/03 15:26:19;;;;;;;13.23;3.00;;;;;;;19.25;49.44;100868.31;5032768;28;20112;-72
2023/07/03 15:28:45;;;;;;;11.27;3.20;;;;;;;19.24;49.70;100874.09;5033554;28;20040;-71
2023/07/03 15:31:11;;;;;;;10.13;3.35;;;;;;;19.22;49.53;100860.66;5033083;28;20033;-71
2023/07/03 15:33:36;;;;;;;10.48;3.40;;;;;;;19.24;49.23;100863.94;5034939;28;20076;-71
2023/07/03 15:36:05;;;;;;;10.63;3.15;;;;;;;19.20;49.28;100860.09;5041121;28;20072;-77
2023/07/03 15:38:30;;;;;;;10.90;3.10;;;;;;;19.20;48.62;100871.06;5035846;28;20087;-71
2023/07/03 15:40:57;;;;;;;11.23;3.03;;;;;;;19.26;48.45;100875.47;5031735;28;20026;-73
2023/07/03 15:43:23;;;;;;;12.00;3.25;;;;;;;19.30;48.34;100868.28;5032999;28;20040;-72
2023/07/03 15:46:06;;;;;;;14.63;3.10;;;;;;;19.40;48.70;100870.16;5031717;28;20036;-72
2023/07/03 15:48:32;;;;;;;11.57;3.30;;;;;;;19.44;48.34;100860.22;5033189;28;20022;-72
2023/07/03 15:51:01;;;;;;;14.27;3.45;;;;;;;19.49;47.79;100862.16;5031617;28;20171;-72
2023/07/03 15:53:27;;;;;;;11.68;3.47;;;;;;;19.49;48.59;100856.66;5033410;28;20037;-72
2023/07/03 15:56:03;;;;;;;12.30;3.22;;;;;;;19.49;47.78;100859.41;5033002;28;20430;-71
2023/07/03 15:58:31;;;;;;;11.13;3.13;;;;;;;19.51;48.14;100859.94;5032145;28;20159;-71
2023/07/03 16:00:59;;;;;;;13.88;3.60;;;;;;;19.49;47.86;100856.66;5030779;28;20033;-72
2023/07/03 16:03:25;;;;;;;8.25;3.03;;;;;;;19.52;47.75;100852.50;5028844;28;20033;-71
2023/07/03 16:05:59;;;;;;;10.90;3.42;;;;;;;19.49;47.98;100851.19;5030989;28;20029;-72
